Roberta, Georgia
Current Conditions -  °F | °C
As of 7:15 PM on Tuesday 25 Nov 2014 (Local Time) from KPXE Reporting Station
Light Rain Light Rain  
Wind Chill: 52°   Ceiling: 3600
Heat Index: 52°   Visibility: 10mi
Dew Point: 47°   Wind: 5mph
Humidity: 84%   Direction: 350°N
Pressure: 30.06"   Gusts: NA
Location:  32.72°N, 84.01°W
Report Text: KPXE 260015Z AUTO 35004KT 10SM -RA OVC036 11/09 A3006 RMK AO2 T01110085
Loading
Personal Weather Stations






























Interactive Weather Map New forecast layout! Learn more

10-Day Weather Forecast

Advertisements
Track Severe Weather on mobile